sensor_id;sensor_type;location;lat;lon;timestamp;temperature;humidity
28959;DHT22;16066;0.000;0.000;2022-09-11T00:01:14;19.70;67.70
28959;DHT22;16066;0.000;0.000;2022-09-11T00:03:41;19.60;67.70
28959;DHT22;16066;0.000;0.000;2022-09-11T00:06:10;19.60;67.50
28959;DHT22;16066;0.000;0.000;2022-09-11T00:08:37;19.70;67.40
28959;DHT22;16066;0.000;0.000;2022-09-11T00:11:15;19.70;67.50
28959;DHT22;16066;0.000;0.000;2022-09-11T00:13:42;19.60;67.60
28959;DHT22;16066;0.000;0.000;2022-09-11T00:18:45;19.60;67.60
28959;DHT22;16066;0.000;0.000;2022-09-11T00:21:11;19.60;67.60
28959;DHT22;16066;0.000;0.000;2022-09-11T00:23:37;19.60;67.70
28959;DHT22;16066;0.000;0.000;2022-09-11T00:26:03;19.60;67.60
28959;DHT22;16066;0.000;0.000;2022-09-11T00:28:29;19.60;67.70
28959;DHT22;16066;0.000;0.000;2022-09-11T00:31:03;19.60;67.50
28959;DHT22;16066;0.000;0.000;2022-09-11T00:33:30;19.60;67.40
28959;DHT22;16066;0.000;0.000;2022-09-11T00:35:58;19.70;67.20
28959;DHT22;16066;0.000;0.000;2022-09-11T00:38:28;19.70;67.00
28959;DHT22;16066;0.000;0.000;2022-09-11T00:40:55;19.60;67.20
28959;DHT22;16066;0.000;0.000;2022-09-11T00:43:23;19.60;67.30
28959;DHT22;16066;0.000;0.000;2022-09-11T00:45:54;19.60;67.50
28959;DHT22;16066;0.000;0.000;2022-09-11T00:48:22;19.60;67.60
28959;DHT22;16066;0.000;0.000;2022-09-11T00:50:50;19.60;67.40
28959;DHT22;16066;0.000;0.000;2022-09-11T00:53:17;19.60;67.20
28959;DHT22;16066;0.000;0.000;2022-09-11T00:55:49;19.60;67.30
28959;DHT22;16066;0.000;0.000;2022-09-11T00:58:18;19.60;67.40
28959;DHT22;16066;0.000;0.000;2022-09-11T01:00:44;19.60;67.70
28959;DHT22;16066;0.000;0.000;2022-09-11T01:03:10;19.60;67.60
28959;DHT22;16066;0.000;0.000;2022-09-11T01:05:38;19.50;67.60
28959;DHT22;16066;0.000;0.000;2022-09-11T01:08:06;19.60;67.30
28959;DHT22;16066;0.000;0.000;2022-09-11T01:10:37;19.60;67.20
28959;DHT22;16066;0.000;0.000;2022-09-11T01:13:11;19.70;66.80
28959;DHT22;16066;0.000;0.000;2022-09-11T01:15:58;19.70;67.30
28959;DHT22;16066;0.000;0.000;2022-09-11T01:30:11;19.60;67.40
28959;DHT22;16066;0.000;0.000;2022-09-11T01:35:32;19.60;67.30
28959;DHT22;16066;0.000;0.000;2022-09-11T01:38:08;19.60;67.30
28959;DHT22;16066;0.000;0.000;2022-09-11T01:40:51;19.60;67.30
28959;DHT22;16066;0.000;0.000;2022-09-11T01:43:23;19.60;67.40
28959;DHT22;16066;0.000;0.000;2022-09-11T01:45:50;19.70;67.40
28959;DHT22;16066;0.000;0.000;2022-09-11T01:48:21;19.70;67.40
28959;DHT22;16066;0.000;0.000;2022-09-11T01:50:50;19.70;67.20
28959;DHT22;16066;0.000;0.000;2022-09-11T01:53:18;19.70;67.40
28959;DHT22;16066;0.000;0.000;2022-09-11T01:55:55;19.70;67.30
28959;DHT22;16066;0.000;0.000;2022-09-11T01:58:26;19.70;67.60
28959;DHT22;16066;0.000;0.000;2022-09-11T02:00:58;19.60;67.50
28959;DHT22;16066;0.000;0.000;2022-09-11T02:03:57;19.60;67.50
28959;DHT22;16066;0.000;0.000;2022-09-11T02:06:32;19.60;67.50
28959;DHT22;16066;0.000;0.000;2022-09-11T02:09:04;19.60;67.60
28959;DHT22;16066;0.000;0.000;2022-09-11T02:11:33;19.70;67.60
28959;DHT22;16066;0.000;0.000;2022-09-11T02:19:25;19.60;67.70
28959;DHT22;16066;0.000;0.000;2022-09-11T02:21:52;19.60;67.80
28959;DHT22;16066;0.000;0.000;2022-09-11T02:24:19;19.70;67.40
28959;DHT22;16066;0.000;0.000;2022-09-11T02:26:55;19.80;67.40
28959;DHT22;16066;0.000;0.000;2022-09-11T02:29:22;19.80;66.90
28959;DHT22;16066;0.000;0.000;2022-09-11T02:31:49;19.80;66.90
28959;DHT22;16066;0.000;0.000;2022-09-11T02:34:18;19.80;67.10
28959;DHT22;16066;0.000;0.000;2022-09-11T02:40:02;19.90;66.80
28959;DHT22;16066;0.000;0.000;2022-09-11T02:42:36;19.90;66.60
28959;DHT22;16066;0.000;0.000;2022-09-11T02:58:48;20.20;65.80
28959;DHT22;16066;0.000;0.000;2022-09-11T03:01:15;20.10;66.40
28959;DHT22;16066;0.000;0.000;2022-09-11T03:03:44;20.00;66.50
28959;DHT22;16066;0.000;0.000;2022-09-11T03:06:19;20.00;66.50
28959;DHT22;16066;0.000;0.000;2022-09-11T03:08:45;19.90;66.60
28959;DHT22;16066;0.000;0.000;2022-09-11T03:11:11;19.90;66.80
28959;DHT22;16066;0.000;0.000;2022-09-11T03:13:39;19.90;67.50
28959;DHT22;16066;0.000;0.000;2022-09-11T03:16:06;19.90;66.90
28959;DHT22;16066;0.000;0.000;2022-09-11T03:18:32;19.80;66.80
28959;DHT22;16066;0.000;0.000;2022-09-11T03:20:58;19.80;66.80
28959;DHT22;16066;0.000;0.000;2022-09-11T03:23:25;19.80;66.80
28959;DHT22;16066;0.000;0.000;2022-09-11T03:25:51;19.80;66.90
28959;DHT22;16066;0.000;0.000;2022-09-11T03:28:16;19.80;66.80
28959;DHT22;16066;0.000;0.000;2022-09-11T03:30:42;19.80;66.70
28959;DHT22;16066;0.000;0.000;2022-09-11T03:33:07;19.80;66.80
28959;DHT22;16066;0.000;0.000;2022-09-11T03:35:33;19.80;67.00
28959;DHT22;16066;0.000;0.000;2022-09-11T03:37:59;19.80;66.80
28959;DHT22;16066;0.000;0.000;2022-09-11T03:40:25;19.80;66.80
28959;DHT22;16066;0.000;0.000;2022-09-11T03:42:51;19.80;66.90
28959;DHT22;16066;0.000;0.000;2022-09-11T03:45:17;19.80;66.80
28959;DHT22;16066;0.000;0.000;2022-09-11T03:47:43;19.90;66.60
28959;DHT22;16066;0.000;0.000;2022-09-11T03:50:09;19.90;66.70
28959;DHT22;16066;0.000;0.000;2022-09-11T03:52:35;19.80;66.70
28959;DHT22;16066;0.000;0.000;2022-09-11T03:55:04;19.80;66.70
28959;DHT22;16066;0.000;0.000;2022-09-11T03:57:33;19.80;66.50
28959;DHT22;16066;0.000;0.000;2022-09-11T03:59:59;19.80;66.70
28959;DHT22;16066;0.000;0.000;2022-09-11T04:02:26;19.80;66.70
28959;DHT22;16066;0.000;0.000;2022-09-11T04:04:51;19.80;66.70
28959;DHT22;16066;0.000;0.000;2022-09-11T04:07:17;19.80;66.70
28959;DHT22;16066;0.000;0.000;2022-09-11T04:09:42;19.80;66.70
28959;DHT22;16066;0.000;0.000;2022-09-11T04:12:08;19.80;66.80
28959;DHT22;16066;0.000;0.000;2022-09-11T04:14:33;19.80;66.50
28959;DHT22;16066;0.000;0.000;2022-09-11T04:16:59;19.90;66.20
28959;DHT22;16066;0.000;0.000;2022-09-11T04:19:24;20.00;65.90
28959;DHT22;16066;0.000;0.000;2022-09-11T04:21:50;20.00;65.70
28959;DHT22;16066;0.000;0.000;2022-09-11T04:24:16;20.10;66.00
28959;DHT22;16066;0.000;0.000;2022-09-11T04:26:41;20.10;65.60
28959;DHT22;16066;0.000;0.000;2022-09-11T04:29:07;20.10;65.60
28959;DHT22;16066;0.000;0.000;2022-09-11T04:31:34;20.00;65.70
28959;DHT22;16066;0.000;0.000;2022-09-11T04:34:00;20.00;65.70
28959;DHT22;16066;0.000;0.000;2022-09-11T04:36:25;20.00;65.70
28959;DHT22;16066;0.000;0.000;2022-09-11T04:38:55;20.00;65.80
28959;DHT22;16066;0.000;0.000;2022-09-11T04:41:22;20.00;65.80
28959;DHT22;16066;0.000;0.000;2022-09-11T04:43:48;20.00;65.40
28959;DHT22;16066;0.000;0.000;2022-09-11T04:46:16;20.10;65.30
28959;DHT22;16066;0.000;0.000;2022-09-11T04:48:45;20.10;65.30
28959;DHT22;16066;0.000;0.000;2022-09-11T04:53:44;20.10;65.20
28959;DHT22;16066;0.000;0.000;2022-09-11T04:56:10;20.10;65.20
28959;DHT22;16066;0.000;0.000;2022-09-11T04:58:39;20.20;65.00
28959;DHT22;16066;0.000;0.000;2022-09-11T05:01:10;20.10;65.30
28959;DHT22;16066;0.000;0.000;2022-09-11T05:03:37;20.10;65.10
28959;DHT22;16066;0.000;0.000;2022-09-11T05:06:05;20.10;65.10
28959;DHT22;16066;0.000;0.000;2022-09-11T05:08:31;20.10;65.10
28959;DHT22;16066;0.000;0.000;2022-09-11T05:11:01;20.10;65.00
28959;DHT22;16066;0.000;0.000;2022-09-11T05:13:27;20.10;64.90
28959;DHT22;16066;0.000;0.000;2022-09-11T05:16:21;20.20;64.70
28959;DHT22;16066;0.000;0.000;2022-09-11T05:18:50;20.20;65.10
28959;DHT22;16066;0.000;0.000;2022-09-11T05:21:17;20.10;64.70
28959;DHT22;16066;0.000;0.000;2022-09-11T05:23:48;20.10;64.90
28959;DHT22;16066;0.000;0.000;2022-09-11T05:26:35;20.00;64.80
28959;DHT22;16066;0.000;0.000;2022-09-11T05:29:03;20.00;65.00
28959;DHT22;16066;0.000;0.000;2022-09-11T05:31:29;20.00;65.00
28959;DHT22;16066;0.000;0.000;2022-09-11T05:33:56;19.90;65.80
28959;DHT22;16066;0.000;0.000;2022-09-11T05:36:23;19.90;65.10
28959;DHT22;16066;0.000;0.000;2022-09-11T05:38:48;20.00;65.00
28959;DHT22;16066;0.000;0.000;2022-09-11T05:41:14;20.00;64.80
28959;DHT22;16066;0.000;0.000;2022-09-11T05:43:41;20.10;64.60
28959;DHT22;16066;0.000;0.000;2022-09-11T05:46:10;20.10;64.50
28959;DHT22;16066;0.000;0.000;2022-09-11T05:48:36;20.20;64.50
28959;DHT22;16066;0.000;0.000;2022-09-11T05:51:05;20.20;64.30
28959;DHT22;16066;0.000;0.000;2022-09-11T05:53:32;20.20;64.30
28959;DHT22;16066;0.000;0.000;2022-09-11T05:56:04;20.20;64.60
28959;DHT22;16066;0.000;0.000;2022-09-11T05:58:31;20.10;64.50
28959;DHT22;16066;0.000;0.000;2022-09-11T06:01:11;20.10;64.80
28959;DHT22;16066;0.000;0.000;2022-09-11T06:03:38;20.10;64.80
28959;DHT22;16066;0.000;0.000;2022-09-11T06:06:05;20.00;64.90
28959;DHT22;16066;0.000;0.000;2022-09-11T06:08:32;20.00;65.00
28959;DHT22;16066;0.000;0.000;2022-09-11T06:10:59;19.90;65.10
28959;DHT22;16066;0.000;0.000;2022-09-11T06:13:31;19.90;65.40
28959;DHT22;16066;0.000;0.000;2022-09-11T06:15:58;19.80;65.40
28959;DHT22;16066;0.000;0.000;2022-09-11T06:18:23;19.80;65.40
28959;DHT22;16066;0.000;0.000;2022-09-11T06:21:00;19.80;65.50
28959;DHT22;16066;0.000;0.000;2022-09-11T06:23:26;19.80;65.40
28959;DHT22;16066;0.000;0.000;2022-09-11T06:25:52;19.80;65.40
28959;DHT22;16066;0.000;0.000;2022-09-11T06:28:22;19.80;65.40
28959;DHT22;16066;0.000;0.000;2022-09-11T06:30:51;19.80;65.70
28959;DHT22;16066;0.000;0.000;2022-09-11T06:33:17;19.80;65.80
28959;DHT22;16066;0.000;0.000;2022-09-11T06:36:16;19.80;65.60
28959;DHT22;16066;0.000;0.000;2022-09-11T06:38:42;19.80;65.50
28959;DHT22;16066;0.000;0.000;2022-09-11T06:41:10;19.70;65.80
28959;DHT22;16066;0.000;0.000;2022-09-11T06:43:38;19.70;65.80
28959;DHT22;16066;0.000;0.000;2022-09-11T06:46:12;19.70;66.00
28959;DHT22;16066;0.000;0.000;2022-09-11T06:48:39;19.60;65.80
28959;DHT22;16066;0.000;0.000;2022-09-11T06:51:07;19.60;66.00
28959;DHT22;16066;0.000;0.000;2022-09-11T06:53:33;19.60;66.40
28959;DHT22;16066;0.000;0.000;2022-09-11T06:56:03;19.60;66.20
28959;DHT22;16066;0.000;0.000;2022-09-11T06:58:31;19.60;66.00
28959;DHT22;16066;0.000;0.000;2022-09-11T07:01:06;19.70;65.40
28959;DHT22;16066;0.000;0.000;2022-09-11T07:03:32;19.80;65.20
28959;DHT22;16066;0.000;0.000;2022-09-11T07:05:58;19.90;65.10
28959;DHT22;16066;0.000;0.000;2022-09-11T07:08:24;19.90;65.00
28959;DHT22;16066;0.000;0.000;2022-09-11T07:10:50;20.00;64.80
28959;DHT22;16066;0.000;0.000;2022-09-11T07:13:15;20.00;64.90
28959;DHT22;16066;0.000;0.000;2022-09-11T07:15:41;20.10;64.90
28959;DHT22;16066;0.000;0.000;2022-09-11T07:18:07;20.10;64.50
28959;DHT22;16066;0.000;0.000;2022-09-11T07:20:32;20.10;64.40
28959;DHT22;16066;0.000;0.000;2022-09-11T07:22:58;20.20;64.40
28959;DHT22;16066;0.000;0.000;2022-09-11T07:25:25;20.20;64.20
28959;DHT22;16066;0.000;0.000;2022-09-11T07:27:51;20.20;64.20
28959;DHT22;16066;0.000;0.000;2022-09-11T07:30:18;20.20;64.30
28959;DHT22;16066;0.000;0.000;2022-09-11T07:32:44;20.20;64.30
28959;DHT22;16066;0.000;0.000;2022-09-11T07:35:09;20.20;64.20
28959;DHT22;16066;0.000;0.000;2022-09-11T07:37:35;20.30;64.20
28959;DHT22;16066;0.000;0.000;2022-09-11T07:40:02;20.40;64.20
28959;DHT22;16066;0.000;0.000;2022-09-11T07:42:27;20.40;64.10
28959;DHT22;16066;0.000;0.000;2022-09-11T07:44:53;20.40;64.10
28959;DHT22;16066;0.000;0.000;2022-09-11T07:47:19;20.40;64.10
28959;DHT22;16066;0.000;0.000;2022-09-11T07:49:44;20.40;64.30
28959;DHT22;16066;0.000;0.000;2022-09-11T07:52:10;20.40;64.10
28959;DHT22;16066;0.000;0.000;2022-09-11T07:54:36;20.40;64.20
28959;DHT22;16066;0.000;0.000;2022-09-11T07:57:02;20.40;64.10
28959;DHT22;16066;0.000;0.000;2022-09-11T07:59:28;20.30;63.80
28959;DHT22;16066;0.000;0.000;2022-09-11T08:01:53;20.30;63.90
28959;DHT22;16066;0.000;0.000;2022-09-11T08:04:20;20.20;63.90
28959;DHT22;16066;0.000;0.000;2022-09-11T08:06:45;20.20;64.10
28959;DHT22;16066;0.000;0.000;2022-09-11T08:09:12;20.20;64.30
28959;DHT22;16066;0.000;0.000;2022-09-11T08:11:42;20.20;64.30
28959;DHT22;16066;0.000;0.000;2022-09-11T08:14:10;20.20;64.50
28959;DHT22;16066;0.000;0.000;2022-09-11T08:16:38;20.10;64.50
28959;DHT22;16066;0.000;0.000;2022-09-11T08:19:04;20.10;64.60
28959;DHT22;16066;0.000;0.000;2022-09-11T08:21:30;20.10;64.60
28959;DHT22;16066;0.000;0.000;2022-09-11T08:23:57;20.10;64.60
28959;DHT22;16066;0.000;0.000;2022-09-11T08:26:29;20.10;64.10
28959;DHT22;16066;0.000;0.000;2022-09-11T08:28:57;20.10;64.40
28959;DHT22;16066;0.000;0.000;2022-09-11T08:31:25;20.20;64.40
28959;DHT22;16066;0.000;0.000;2022-09-11T08:33:51;20.20;64.50
28959;DHT22;16066;0.000;0.000;2022-09-11T08:36:17;20.20;64.40
28959;DHT22;16066;0.000;0.000;2022-09-11T08:38:43;20.30;64.20
28959;DHT22;16066;0.000;0.000;2022-09-11T08:41:18;20.30;63.90
28959;DHT22;16066;0.000;0.000;2022-09-11T08:43:53;20.40;64.10
28959;DHT22;16066;0.000;0.000;2022-09-11T08:46:23;20.40;63.80
28959;DHT22;16066;0.000;0.000;2022-09-11T08:49:03;20.50;63.80
28959;DHT22;16066;0.000;0.000;2022-09-11T08:51:31;20.60;63.50
28959;DHT22;16066;0.000;0.000;2022-09-11T08:53:58;20.60;63.30
28959;DHT22;16066;0.000;0.000;2022-09-11T08:56:28;20.70;63.60
28959;DHT22;16066;0.000;0.000;2022-09-11T08:59:16;20.70;63.50
28959;DHT22;16066;0.000;0.000;2022-09-11T09:02:17;20.80;63.30
28959;DHT22;16066;0.000;0.000;2022-09-11T09:05:03;20.80;63.00
28959;DHT22;16066;0.000;0.000;2022-09-11T09:07:46;20.80;63.10
28959;DHT22;16066;0.000;0.000;2022-09-11T09:15:57;20.90;63.30
28959;DHT22;16066;0.000;0.000;2022-09-11T09:18:37;20.90;63.30
28959;DHT22;16066;0.000;0.000;2022-09-11T09:23:47;20.90;63.20
28959;DHT22;16066;0.000;0.000;2022-09-11T09:26:16;20.90;63.00
28959;DHT22;16066;0.000;0.000;2022-09-11T09:28:45;20.90;63.10
28959;DHT22;16066;0.000;0.000;2022-09-11T09:31:14;20.90;63.10
28959;DHT22;16066;0.000;0.000;2022-09-11T09:37:10;20.90;62.90
28959;DHT22;16066;0.000;0.000;2022-09-11T09:39:15;20.90;62.90
28959;DHT22;16066;0.000;0.000;2022-09-11T09:47:29;20.90;63.00
28959;DHT22;16066;0.000;0.000;2022-09-11T09:49:58;20.90;63.10
28959;DHT22;16066;0.000;0.000;2022-09-11T09:52:29;20.90;62.80
28959;DHT22;16066;0.000;0.000;2022-09-11T09:54:59;20.90;63.10
28959;DHT22;16066;0.000;0.000;2022-09-11T09:57:30;21.00;63.10
28959;DHT22;16066;0.000;0.000;2022-09-11T10:00:05;21.00;62.90
28959;DHT22;16066;0.000;0.000;2022-09-11T10:02:39;21.00;63.00
28959;DHT22;16066;0.000;0.000;2022-09-11T10:10:34;20.90;63.20
28959;DHT22;16066;0.000;0.000;2022-09-11T10:15:39;20.90;63.30
28959;DHT22;16066;0.000;0.000;2022-09-11T10:18:43;20.90;63.50
28959;DHT22;16066;0.000;0.000;2022-09-11T10:26:45;21.00;63.10
28959;DHT22;16066;0.000;0.000;2022-09-11T10:29:20;21.00;62.80
28959;DHT22;16066;0.000;0.000;2022-09-11T10:31:52;21.00;62.70
28959;DHT22;16066;0.000;0.000;2022-09-11T10:34:20;20.90;62.80
28959;DHT22;16066;0.000;0.000;2022-09-11T10:36:58;21.00;62.70
28959;DHT22;16066;0.000;0.000;2022-09-11T10:39:26;21.00;62.60
28959;DHT22;16066;0.000;0.000;2022-09-11T10:41:55;21.00;62.10
28959;DHT22;16066;0.000;0.000;2022-09-11T10:44:23;21.00;62.20
28959;DHT22;16066;0.000;0.000;2022-09-11T10:47:03;21.00;62.00
28959;DHT22;16066;0.000;0.000;2022-09-11T10:49:30;21.10;62.10
28959;DHT22;16066;0.000;0.000;2022-09-11T10:51:58;21.10;61.80
28959;DHT22;16066;0.000;0.000;2022-09-11T10:54:38;21.10;61.70
28959;DHT22;16066;0.000;0.000;2022-09-11T11:00:12;21.10;60.90
28959;DHT22;16066;0.000;0.000;2022-09-11T11:02:49;21.10;60.60
28959;DHT22;16066;0.000;0.000;2022-09-11T11:05:27;21.20;60.60
28959;DHT22;16066;0.000;0.000;2022-09-11T11:08:01;21.20;60.50
28959;DHT22;16066;0.000;0.000;2022-09-11T11:10:49;21.20;60.10
28959;DHT22;16066;0.000;0.000;2022-09-11T11:22:37;21.30;59.60
28959;DHT22;16066;0.000;0.000;2022-09-11T11:25:27;21.30;59.40
28959;DHT22;16066;0.000;0.000;2022-09-11T11:35:59;21.40;59.90
28959;DHT22;16066;0.000;0.000;2022-09-11T11:41:14;21.40;60.00
28959;DHT22;16066;0.000;0.000;2022-09-11T11:43:44;21.50;60.10
28959;DHT22;16066;0.000;0.000;2022-09-11T11:46:34;21.40;60.10
28959;DHT22;16066;0.000;0.000;2022-09-11T11:49:13;21.40;60.10
28959;DHT22;16066;0.000;0.000;2022-09-11T11:55:01;21.40;59.90
28959;DHT22;16066;0.000;0.000;2022-09-11T11:57:36;21.40;59.70
28959;DHT22;16066;0.000;0.000;2022-09-11T12:00:10;21.50;59.80
28959;DHT22;16066;0.000;0.000;2022-09-11T12:02:59;21.50;59.60
28959;DHT22;16066;0.000;0.000;2022-09-11T12:05:30;21.50;59.40
28959;DHT22;16066;0.000;0.000;2022-09-11T12:07:57;21.60;59.40
28959;DHT22;16066;0.000;0.000;2022-09-11T12:10:32;21.70;59.30
28959;DHT22;16066;0.000;0.000;2022-09-11T12:13:02;21.70;59.20
28959;DHT22;16066;0.000;0.000;2022-09-11T12:15:29;21.80;59.10
28959;DHT22;16066;0.000;0.000;2022-09-11T12:20:44;21.90;59.00
28959;DHT22;16066;0.000;0.000;2022-09-11T12:28:33;22.00;58.70
28959;DHT22;16066;0.000;0.000;2022-09-11T12:31:13;21.90;58.60
28959;DHT22;16066;0.000;0.000;2022-09-11T12:36:28;21.90;58.10
28959;DHT22;16066;0.000;0.000;2022-09-11T12:41:45;21.90;57.90
28959;DHT22;16066;0.000;0.000;2022-09-11T12:44:31;21.90;57.90
28959;DHT22;16066;0.000;0.000;2022-09-11T12:47:25;21.80;57.90
28959;DHT22;16066;0.000;0.000;2022-09-11T12:55:28;21.80;58.20
28959;DHT22;16066;0.000;0.000;2022-09-11T12:57:58;21.80;58.30
28959;DHT22;16066;0.000;0.000;2022-09-11T13:00:37;21.80;58.10
28959;DHT22;16066;0.000;0.000;2022-09-11T13:03:05;21.80;58.20
28959;DHT22;16066;0.000;0.000;2022-09-11T13:05:35;21.90;58.10
28959;DHT22;16066;0.000;0.000;2022-09-11T13:08:15;21.90;58.10
28959;DHT22;16066;0.000;0.000;2022-09-11T13:10:43;22.00;58.30
28959;DHT22;16066;0.000;0.000;2022-09-11T13:13:42;22.10;58.40
28959;DHT22;16066;0.000;0.000;2022-09-11T13:16:26;22.10;58.30
28959;DHT22;16066;0.000;0.000;2022-09-11T13:19:12;22.10;58.10
28959;DHT22;16066;0.000;0.000;2022-09-11T13:21:40;22.10;58.10
28959;DHT22;16066;0.000;0.000;2022-09-11T13:24:22;22.10;58.00
28959;DHT22;16066;0.000;0.000;2022-09-11T13:26:51;22.20;58.10
28959;DHT22;16066;0.000;0.000;2022-09-11T13:29:21;22.20;58.10
28959;DHT22;16066;0.000;0.000;2022-09-11T13:31:49;22.40;58.10
28959;DHT22;16066;0.000;0.000;2022-09-11T13:34:17;22.40;57.70
28959;DHT22;16066;0.000;0.000;2022-09-11T13:36:44;22.50;57.50
28959;DHT22;16066;0.000;0.000;2022-09-11T13:39:13;22.60;57.50
28959;DHT22;16066;0.000;0.000;2022-09-11T13:41:42;22.50;57.20
28959;DHT22;16066;0.000;0.000;2022-09-11T13:44:41;22.50;57.30
28959;DHT22;16066;0.000;0.000;2022-09-11T13:47:18;22.40;57.60
28959;DHT22;16066;0.000;0.000;2022-09-11T13:49:45;22.30;57.90
28959;DHT22;16066;0.000;0.000;2022-09-11T13:52:12;22.20;58.10
28959;DHT22;16066;0.000;0.000;2022-09-11T13:54:44;22.20;58.30
28959;DHT22;16066;0.000;0.000;2022-09-11T13:57:17;22.10;58.40
28959;DHT22;16066;0.000;0.000;2022-09-11T14:07:32;22.20;58.30
28959;DHT22;16066;0.000;0.000;2022-09-11T14:10:03;22.30;58.10
28959;DHT22;16066;0.000;0.000;2022-09-11T14:12:30;22.30;58.00
28959;DHT22;16066;0.000;0.000;2022-09-11T14:15:01;22.30;58.00
28959;DHT22;16066;0.000;0.000;2022-09-11T14:17:29;22.20;57.90
28959;DHT22;16066;0.000;0.000;2022-09-11T14:19:58;22.20;57.90
28959;DHT22;16066;0.000;0.000;2022-09-11T14:22:29;22.20;58.00
28959;DHT22;16066;0.000;0.000;2022-09-11T14:25:24;22.30;58.00
28959;DHT22;16066;0.000;0.000;2022-09-11T14:27:49;22.50;57.70
28959;DHT22;16066;0.000;0.000;2022-09-11T14:30:30;22.70;57.10
28959;DHT22;16066;0.000;0.000;2022-09-11T14:35:38;23.00;56.30
28959;DHT22;16066;0.000;0.000;2022-09-11T14:38:04;23.20;56.10
28959;DHT22;16066;0.000;0.000;2022-09-11T14:40:30;23.30;55.90
28959;DHT22;16066;0.000;0.000;2022-09-11T14:42:56;23.40;55.70
28959;DHT22;16066;0.000;0.000;2022-09-11T14:45:24;23.50;55.40
28959;DHT22;16066;0.000;0.000;2022-09-11T14:47:51;23.60;55.30
28959;DHT22;16066;0.000;0.000;2022-09-11T14:50:18;23.70;55.20
28959;DHT22;16066;0.000;0.000;2022-09-11T14:52:44;23.80;54.90
28959;DHT22;16066;0.000;0.000;2022-09-11T14:55:18;23.90;54.70
28959;DHT22;16066;0.000;0.000;2022-09-11T14:57:44;24.00;54.50
28959;DHT22;16066;0.000;0.000;2022-09-11T15:00:15;24.10;54.30
28959;DHT22;16066;0.000;0.000;2022-09-11T15:02:41;24.20;54.10
28959;DHT22;16066;0.000;0.000;2022-09-11T15:05:15;24.20;53.80
28959;DHT22;16066;0.000;0.000;2022-09-11T15:07:42;24.30;53.70
28959;DHT22;16066;0.000;0.000;2022-09-11T15:10:11;24.30;53.60
28959;DHT22;16066;0.000;0.000;2022-09-11T15:12:38;24.30;53.40
28959;DHT22;16066;0.000;0.000;2022-09-11T15:15:04;24.30;53.30
28959;DHT22;16066;0.000;0.000;2022-09-11T15:17:30;24.40;53.50
28959;DHT22;16066;0.000;0.000;2022-09-11T15:19:56;24.30;53.20
28959;DHT22;16066;0.000;0.000;2022-09-11T15:22:24;24.30;53.50
28959;DHT22;16066;0.000;0.000;2022-09-11T15:24:49;24.20;53.60
28959;DHT22;16066;0.000;0.000;2022-09-11T15:27:16;24.10;53.70
28959;DHT22;16066;0.000;0.000;2022-09-11T15:29:43;24.00;53.90
28959;DHT22;16066;0.000;0.000;2022-09-11T15:32:09;23.90;53.80
28959;DHT22;16066;0.000;0.000;2022-09-11T15:34:36;23.80;53.80
28959;DHT22;16066;0.000;0.000;2022-09-11T15:37:03;23.80;54.00
28959;DHT22;16066;0.000;0.000;2022-09-11T15:39:29;23.70;53.90
28959;DHT22;16066;0.000;0.000;2022-09-11T15:41:55;23.60;53.90
28959;DHT22;16066;0.000;0.000;2022-09-11T15:44:24;23.50;54.00
28959;DHT22;16066;0.000;0.000;2022-09-11T15:46:51;23.40;54.70
28959;DHT22;16066;0.000;0.000;2022-09-11T15:49:19;23.30;55.20
28959;DHT22;16066;0.000;0.000;2022-09-11T15:51:46;23.30;55.60
28959;DHT22;16066;0.000;0.000;2022-09-11T15:54:16;23.20;55.40
28959;DHT22;16066;0.000;0.000;2022-09-11T15:56:42;23.10;55.40
28959;DHT22;16066;0.000;0.000;2022-09-11T15:59:13;23.00;55.70
28959;DHT22;16066;0.000;0.000;2022-09-11T16:01:42;22.90;55.80
28959;DHT22;16066;0.000;0.000;2022-09-11T16:04:14;22.90;56.00
28959;DHT22;16066;0.000;0.000;2022-09-11T16:06:42;22.80;56.10
28959;DHT22;16066;0.000;0.000;2022-09-11T16:09:29;22.70;56.20
28959;DHT22;16066;0.000;0.000;2022-09-11T16:11:55;22.70;56.30
28959;DHT22;16066;0.000;0.000;2022-09-11T16:14:33;22.70;56.50
28959;DHT22;16066;0.000;0.000;2022-09-11T16:17:00;22.70;56.40
28959;DHT22;16066;0.000;0.000;2022-09-11T16:19:27;22.70;56.50
28959;DHT22;16066;0.000;0.000;2022-09-11T16:21:55;22.70;56.60
28959;DHT22;16066;0.000;0.000;2022-09-11T16:24:26;22.70;56.60
28959;DHT22;16066;0.000;0.000;2022-09-11T16:26:53;22.70;56.60
28959;DHT22;16066;0.000;0.000;2022-09-11T16:29:21;22.70;56.60
28959;DHT22;16066;0.000;0.000;2022-09-11T16:31:47;22.70;56.60
28959;DHT22;16066;0.000;0.000;2022-09-11T16:34:14;22.70;56.70
28959;DHT22;16066;0.000;0.000;2022-09-11T16:36:43;22.70;56.80
28959;DHT22;16066;0.000;0.000;2022-09-11T16:39:11;22.70;56.70
28959;DHT22;16066;0.000;0.000;2022-09-11T16:41:37;22.70;56.70
28959;DHT22;16066;0.000;0.000;2022-09-11T16:44:05;22.70;56.80
28959;DHT22;16066;0.000;0.000;2022-09-11T16:46:31;22.70;57.00
28959;DHT22;16066;0.000;0.000;2022-09-11T16:48:58;22.70;56.80
28959;DHT22;16066;0.000;0.000;2022-09-11T16:51:24;22.70;56.90
28959;DHT22;16066;0.000;0.000;2022-09-11T16:53:50;22.70;57.00
28959;DHT22;16066;0.000;0.000;2022-09-11T16:56:20;22.80;57.00
28959;DHT22;16066;0.000;0.000;2022-09-11T16:58:47;22.80;57.00
28959;DHT22;16066;0.000;0.000;2022-09-11T17:01:19;22.80;56.90
28959;DHT22;16066;0.000;0.000;2022-09-11T17:03:47;22.80;56.90
28959;DHT22;16066;0.000;0.000;2022-09-11T17:06:14;22.70;56.80
28959;DHT22;16066;0.000;0.000;2022-09-11T17:08:41;22.70;56.80
28959;DHT22;16066;0.000;0.000;2022-09-11T17:11:11;22.70;56.80
28959;DHT22;16066;0.000;0.000;2022-09-11T17:13:38;22.70;56.80
28959;DHT22;16066;0.000;0.000;2022-09-11T17:16:08;22.70;56.70
28959;DHT22;16066;0.000;0.000;2022-09-11T17:18:37;22.70;56.80
28959;DHT22;16066;0.000;0.000;2022-09-11T17:21:08;22.70;56.70
28959;DHT22;16066;0.000;0.000;2022-09-11T17:23:40;22.60;56.70
28959;DHT22;16066;0.000;0.000;2022-09-11T17:26:12;22.70;56.80
28959;DHT22;16066;0.000;0.000;2022-09-11T17:28:44;22.60;56.80
28959;DHT22;16066;0.000;0.000;2022-09-11T17:31:11;22.60;56.70
28959;DHT22;16066;0.000;0.000;2022-09-11T17:33:39;22.60;56.90
28959;DHT22;16066;0.000;0.000;2022-09-11T17:36:07;22.60;56.90
28959;DHT22;16066;0.000;0.000;2022-09-11T17:38:33;22.60;56.90
28959;DHT22;16066;0.000;0.000;2022-09-11T17:41:02;22.50;56.90
28959;DHT22;16066;0.000;0.000;2022-09-11T17:43:29;22.50;57.00
28959;DHT22;16066;0.000;0.000;2022-09-11T17:46:16;22.50;57.00
28959;DHT22;16066;0.000;0.000;2022-09-11T17:48:42;22.50;56.90
28959;DHT22;16066;0.000;0.000;2022-09-11T17:51:14;22.50;57.00
28959;DHT22;16066;0.000;0.000;2022-09-11T17:53:42;22.40;56.80
28959;DHT22;16066;0.000;0.000;2022-09-11T17:56:12;22.50;57.00
28959;DHT22;16066;0.000;0.000;2022-09-11T17:58:39;22.40;57.00
28959;DHT22;16066;0.000;0.000;2022-09-11T18:01:05;22.40;57.00
28959;DHT22;16066;0.000;0.000;2022-09-11T18:03:32;22.40;57.10
28959;DHT22;16066;0.000;0.000;2022-09-11T18:06:00;22.40;57.20
28959;DHT22;16066;0.000;0.000;2022-09-11T18:08:30;22.40;57.20
28959;DHT22;16066;0.000;0.000;2022-09-11T18:10:59;22.40;57.30